Time;durP1;ratioP1;P1;durP2;ratioP2;P2;SDS_P1;SDS_P2;PMS_P1;PMS_P2;Temp;Humidity;BMP_temperature;BMP_pressure;BME280_temperature;BME280_humidity;BME280_pressure;Samples;Min_cycle;Max_cycle;Signal;HPM_P1;HPM_P2
2022/01/08 00:02:15;;;;;;;9.37;4.30;;;;;;;-1.15;75.51;101498.38;31454490;28;20144;-78
2022/01/08 00:17:17;;;;;;;10.53;3.83;;;;;;;-1.12;74.93;101506.53;31471696;28;20087;-79
2022/01/08 00:32:19;;;;;;;5.90;3.83;;;;;;;-1.10;77.17;101504.38;31442150;28;20087;-79
2022/01/08 00:47:21;;;;;;;10.37;4.73;;;;;;;-1.17;76.40;101506.66;31391012;28;20053;-78
2022/01/08 01:02:23;;;;;;;11.43;4.57;;;;;;;-1.28;77.10;101500.03;31431362;28;20053;-78
2022/01/08 01:17:25;;;;;;;7.93;4.77;;;;;;;-1.58;77.51;101490.09;31415357;28;20675;-79
2022/01/08 01:47:48;;;;;;;17.17;7.40;;;;;;;-1.63;80.87;101498.22;31475765;28;20062;-77
2022/01/08 02:02:50;;;;;;;18.13;8.77;;;;;;;-1.98;79.26;101500.59;31485725;28;20532;-79
2022/01/08 02:17:52;;;;;;;16.70;7.37;;;;;;;-1.96;81.13;101495.78;31511393;28;20057;-73
2022/01/08 02:32:54;;;;;;;18.90;8.97;;;;;;;-1.89;78.40;101496.13;31440795;28;20053;-73
2022/01/08 02:47:57;;;;;;;30.33;12.73;;;;;;;-2.26;75.65;101501.72;31460335;28;20538;-72
2022/01/08 03:02:59;;;;;;;23.73;9.40;;;;;;;-2.37;80.49;101511.03;31458911;28;20351;-73
2022/01/08 03:18:03;;;;;;;20.33;10.07;;;;;;;-2.37;80.61;101511.81;31466344;28;20141;-73
2022/01/08 03:33:05;;;;;;;20.90;7.60;;;;;;;-2.43;78.84;101521.75;31444975;28;20048;-74
2022/01/08 04:03:09;;;;;;;10.20;3.60;;;;;;;-2.84;78.63;101526.28;31452821;28;20147;-73
2022/01/08 04:18:11;;;;;;;11.87;3.93;;;;;;;-2.91;82.65;101541.78;31458389;28;20050;-75
2022/01/08 04:33:13;;;;;;;5.43;3.30;;;;;;;-3.18;82.97;101567.22;31456720;28;20044;-79
2022/01/08 04:48:16;;;;;;;5.70;2.60;;;;;;;-3.14;82.14;101567.41;31441389;28;20080;-78
2022/01/08 05:03:23;;;;;;;5.33;3.07;;;;;;;-3.21;82.28;101573.09;31471195;28;20055;-79
2022/01/08 05:18:29;;;;;;;3.90;2.73;;;;;;;-3.27;83.23;101584.88;31505696;28;20127;-79
2022/01/08 05:33:30;;;;;;;4.07;2.93;;;;;;;-3.42;81.50;101601.03;31470177;28;20114;-80
2022/01/08 05:48:32;;;;;;;4.83;3.37;;;;;;;-3.45;84.00;101605.06;31414298;28;20071;-78
2022/01/08 06:03:34;;;;;;;5.23;3.50;;;;;;;-3.03;84.48;101606.00;31477636;28;20048;-79
2022/01/08 06:18:38;;;;;;;6.33;4.07;;;;;;;0.37;76.80;101616.16;31475910;28;20135;-79
2022/01/08 06:33:39;;;;;;;8.83;4.63;;;;;;;2.31;72.16;101614.72;31467858;28;20066;-79
2022/01/08 06:48:42;;;;;;;14.30;5.00;;;;;;;3.11;65.71;101625.25;31458904;28;20067;-80
2022/01/08 07:03:43;;;;;;;12.40;5.00;;;;;;;4.13;56.67;101624.41;31444088;28;20398;-80
2022/01/08 07:18:46;;;;;;;14.33;5.87;;;;;;;4.75;52.92;101629.31;31455848;28;20436;-79
2022/01/08 07:33:49;;;;;;;10.23;4.57;;;;;;;5.52;58.00;101608.28;31449058;28;20505;-80
2022/01/08 07:48:51;;;;;;;9.30;4.40;;;;;;;4.44;52.67;101598.47;31413691;28;20945;-74
2022/01/08 08:03:53;;;;;;;10.43;4.63;;;;;;;4.90;57.25;101588.22;31406195;28;20066;-73
2022/01/08 08:18:55;;;;;;;10.10;4.63;;;;;;;5.33;55.37;101557.03;31382458;28;2243413;-75
2022/01/08 08:34:00;;;;;;;12.20;3.53;;;;;;;6.00;53.68;101541.69;31439526;28;20741;-75
2022/01/08 08:49:02;;;;;;;5.30;2.40;;;;;;;5.05;50.16;101520.19;31434910;28;20428;-74
2022/01/08 09:04:04;;;;;;;3.17;2.70;;;;;;;5.65;49.11;101507.41;31441310;28;20049;-75
2022/01/08 09:19:06;;;;;;;4.10;2.50;;;;;;;4.97;48.24;101501.50;31410718;28;20060;-75
2022/01/08 09:34:09;;;;;;;3.50;2.10;;;;;;;5.00;45.66;101469.28;31428385;28;20063;-74
2022/01/08 09:49:11;;;;;;;5.90;2.30;;;;;;;4.98;45.65;101444.63;31439093;28;20052;-74
2022/01/08 10:04:23;;;;;;;2.80;2.17;;;;;;;5.34;46.19;101421.25;31417490;28;20052;-75
2022/01/08 10:19:25;;;;;;;3.17;1.90;;;;;;;4.64;41.85;101411.16;31458479;28;20044;-76
2022/01/08 10:34:30;;;;;;;10.57;3.07;;;;;;;4.17;47.98;101388.78;31454017;28;20139;-74
2022/01/08 10:49:32;;;;;;;5.77;2.57;;;;;;;4.29;49.15;101378.72;31420691;28;20826;-76
2022/01/08 11:04:48;;;;;;;5.47;2.10;;;;;;;3.32;41.37;101368.31;31445400;28;20132;-75
2022/01/08 11:20:17;;;;;;;4.70;2.37;;;;;;;3.22;43.86;101356.16;31413906;28;20154;-75
2022/01/08 11:35:20;;;;;;;3.40;2.10;;;;;;;3.12;43.99;101355.81;31443915;28;20573;-81
2022/01/08 11:50:26;;;;;;;2.40;2.13;;;;;;;4.66;42.80;101347.03;31447237;28;20127;-80
2022/01/08 12:05:28;;;;;;;2.30;1.43;;;;;;;4.34;43.01;101343.53;31442605;28;20049;-82
2022/01/08 12:20:51;;;;;;;3.90;1.93;;;;;;;5.94;37.74;101322.06;31444190;28;20532;-82
2022/01/08 12:36:31;;;;;;;2.77;1.77;;;;;;;4.68;39.67;101322.47;31483857;28;20072;-86
2022/01/08 12:51:46;;;;;;;3.90;1.83;;;;;;;1.94;46.08;101327.09;31404087;28;20501;-77
2022/01/08 13:06:49;;;;;;;3.17;1.97;;;;;;;0.95;52.70;101316.22;31455413;28;20091;-75
2022/01/08 13:21:56;;;;;;;4.07;2.20;;;;;;;0.37;53.85;101299.03;31434191;28;20066;-74
2022/01/08 13:37:15;;;;;;;7.97;3.83;;;;;;;0.05;56.54;101279.03;31429834;28;20060;-75
2022/01/08 13:52:35;;;;;;;10.57;3.17;;;;;;;-0.02;58.50;101278.75;31463344;28;20053;-83
2022/01/08 14:07:44;;;;;;;12.13;5.53;;;;;;;-0.30;60.89;101277.56;31472562;28;20063;-82
2022/01/08 14:22:46;;;;;;;11.57;4.73;;;;;;;-0.37;61.71;101278.81;31477486;28;20080;-81
2022/01/08 14:37:47;;;;;;;11.60;5.40;;;;;;;-0.44;63.40;101273.16;31464989;28;20140;-82
2022/01/08 14:52:50;;;;;;;10.93;4.50;;;;;;;-0.55;63.74;101266.59;31457080;28;20486;-82
2022/01/08 15:07:52;;;;;;;10.93;4.27;;;;;;;-0.53;65.00;101259.06;31466579;28;20140;-85
2022/01/08 15:22:54;;;;;;;10.87;3.60;;;;;;;-0.67;66.38;101258.41;31447605;28;20049;-82
2022/01/08 15:38:02;;;;;;;5.50;3.30;;;;;;;-0.79;65.65;101244.94;31440655;28;20048;-87
2022/01/08 15:53:04;;;;;;;7.53;3.20;;;;;;;-0.87;66.32;101243.06;31414633;28;20049;-79
2022/01/08 16:08:09;;;;;;;9.17;3.00;;;;;;;-1.02;67.05;101230.19;31466295;28;20517;-83
2022/01/08 16:23:15;;;;;;;4.73;3.30;;;;;;;-1.19;66.46;101215.78;31446628;28;20134;-81
2022/01/08 16:38:28;;;;;;;5.37;3.00;;;;;;;-1.30;66.83;101209.16;31462605;28;20077;-83
2022/01/08 16:53:33;;;;;;;12.17;4.27;;;;;;;-1.45;69.11;101177.66;31445813;28;20072;-84
2022/01/08 17:08:35;;;;;;;10.03;3.17;;;;;;;-1.65;70.83;101164.91;31449566;28;20091;-83
2022/01/08 17:23:39;;;;;;;8.03;3.93;;;;;;;-1.69;70.99;101150.66;31479435;28;20057;-79
2022/01/08 17:38:58;;;;;;;10.30;4.77;;;;;;;-1.70;70.58;101135.78;31435521;28;20510;-77
2022/01/08 17:54:07;;;;;;;10.30;4.30;;;;;;;-1.68;71.07;101112.28;31456776;28;20467;-77
2022/01/08 18:09:23;;;;;;;11.00;5.27;;;;;;;-1.63;70.54;101082.81;31427484;28;20144;-78
2022/01/08 18:24:49;;;;;;;9.47;4.50;;;;;;;-1.58;70.63;101053.41;31445742;28;20143;-82
2022/01/08 18:39:51;;;;;;;13.43;6.77;;;;;;;-1.54;70.31;101043.69;31470302;28;20477;-84
2022/01/08 18:54:53;;;;;;;10.23;5.50;;;;;;;-1.98;70.18;101026.91;31443864;28;20051;-78
2022/01/08 19:10:06;;;;;;;6.13;2.37;;;;;;;-2.17;72.34;101003.25;31415788;28;20048;-80
2022/01/08 19:25:10;;;;;;;3.30;2.60;;;;;;;-2.35;73.26;100984.88;31426819;28;20052;-76
2022/01/08 19:40:12;;;;;;;5.70;2.50;;;;;;;-2.39;73.34;100954.72;31443832;28;20120;-77
2022/01/08 19:55:15;;;;;;;5.47;3.03;;;;;;;-2.41;73.19;100936.41;31438376;28;20508;-79
2022/01/08 20:10:27;;;;;;;6.93;3.60;;;;;;;-2.36;74.27;100916.88;31431194;28;20052;-75
2022/01/08 20:25:29;;;;;;;6.10;3.47;;;;;;;-2.42;74.53;100893.09;31444626;28;20056;-76
2022/01/08 20:40:33;;;;;;;5.00;3.23;;;;;;;-2.40;74.44;100884.78;31455555;28;20144;-80
2022/01/08 20:55:38;;;;;;;5.17;2.90;;;;;;;-2.18;75.82;100878.53;31472404;28;20056;-82
2022/01/08 21:10:40;;;;;;;9.30;2.40;;;;;;;-2.05;75.87;100843.00;31496041;28;20052;-81
2022/01/08 21:25:42;;;;;;;5.20;3.00;;;;;;;-2.06;75.30;100822.81;31485513;28;20055;-76
2022/01/08 21:40:44;;;;;;;4.63;2.80;;;;;;;-2.09;75.24;100791.50;31415314;28;20049;-76
2022/01/08 21:55:47;;;;;;;7.23;3.13;;;;;;;-2.04;76.28;100770.06;31438582;28;20117;-76
2022/01/08 22:10:49;;;;;;;13.67;2.87;;;;;;;-1.93;77.52;100749.22;31453146;28;20051;-75
2022/01/08 22:25:51;;;;;;;7.07;3.27;;;;;;;-1.92;77.53;100722.28;31425992;28;20539;-76
2022/01/08 22:40:56;;;;;;;7.27;2.97;;;;;;;-1.99;78.27;100698.06;31446609;28;20044;-76
2022/01/08 22:55:57;;;;;;;8.40;3.60;;;;;;;-1.92;79.56;100677.06;31433558;28;20144;-76
2022/01/08 23:11:10;;;;;;;8.03;3.73;;;;;;;-1.96;81.26;100654.84;31443128;28;20055;-76
2022/01/08 23:26:21;;;;;;;6.57;3.03;;;;;;;-1.95;82.08;100660.94;31435197;28;20057;-75
2022/01/08 23:41:49;;;;;;;6.73;3.70;;;;;;;-1.93;83.30;100643.56;31437473;28;20044;-76
2022/01/08 23:58:29;;;;;;;8.77;4.03;;;;;;;-1.92;85.39;100621.19;30798836;28;20065;-76
